Time;durP1;ratioP1;P1;durP2;ratioP2;P2;SDS_P1;SDS_P2;PMS_P1;PMS_P2;Temp;Humidity;BMP_temperature;BMP_pressure;BME280_temperature;BME280_humidity;BME280_pressure;Samples;Min_cycle;Max_cycle;Signal;HPM_P1;HPM_P2
2024/02/15 00:00:52;;;;;;;0.50;0.50;;;10.10;99.90;;;;;;4937787;29;21027;-81
2024/02/15 00:03:19;;;;;;;0.37;0.30;;;10.10;99.90;;;;;;4937818;29;20451;-81
2024/02/15 00:05:47;;;;;;;1.67;0.57;;;10.10;99.90;;;;;;4938253;29;20448;-81
2024/02/15 00:08:15;;;;;;;0.40;0.40;;;10.10;99.90;;;;;;4938010;29;20461;-81
2024/02/15 00:10:41;;;;;;;3.90;0.57;;;10.10;99.90;;;;;;4937623;29;20860;-81
2024/02/15 00:13:08;;;;;;;1.23;0.90;;;10.10;99.90;;;;;;4937335;29;20454;-81
2024/02/15 00:15:36;;;;;;;1.20;0.40;;;10.00;99.90;;;;;;4937712;29;20487;-81
2024/02/15 00:18:03;;;;;;;0.87;0.40;;;10.00;99.90;;;;;;4937980;29;20455;-81
2024/02/15 00:20:30;;;;;;;0.77;0.40;;;10.10;99.90;;;;;;4937429;29;20459;-81
2024/02/15 00:22:58;;;;;;;1.03;0.80;;;10.10;99.90;;;;;;4937592;29;20972;-81
2024/02/15 00:25:25;;;;;;;1.83;0.60;;;10.20;99.90;;;;;;4937245;29;20443;-81
2024/02/15 00:27:52;;;;;;;0.40;0.40;;;10.20;99.90;;;;;;4937039;29;20455;-81
2024/02/15 00:30:19;;;;;;;3.37;0.50;;;10.20;99.90;;;;;;4936936;29;20857;-81
2024/02/15 00:32:46;;;;;;;0.40;0.30;;;10.20;99.90;;;;;;4937157;29;20459;-81
2024/02/15 00:35:13;;;;;;;0.57;0.40;;;10.20;99.90;;;;;;4937200;29;20538;-81
2024/02/15 00:37:41;;;;;;;0.30;0.30;;;10.10;99.90;;;;;;4937027;29;20967;-81
2024/02/15 00:40:09;;;;;;;0.47;0.47;;;10.10;99.90;;;;;;4936759;29;20471;-81
2024/02/15 00:42:36;;;;;;;3.80;0.73;;;10.10;99.90;;;;;;4936959;29;20443;-81
2024/02/15 00:45:03;;;;;;;0.40;0.40;;;10.10;99.90;;;;;;4936830;29;20815;-81
2024/02/15 00:47:30;;;;;;;0.57;0.40;;;10.10;99.90;;;;;;4937253;29;20948;-81
2024/02/15 00:49:57;;;;;;;1.53;0.60;;;10.10;99.90;;;;;;4936964;29;20471;-81
2024/02/15 00:52:24;;;;;;;1.17;0.57;;;10.00;99.90;;;;;;4937020;29;20538;-81
2024/02/15 00:54:51;;;;;;;0.60;0.60;;;10.00;99.90;;;;;;4937007;29;20447;-81
2024/02/15 00:57:19;;;;;;;0.30;0.30;;;10.00;99.90;;;;;;4936897;29;20491;-81
2024/02/15 00:59:45;;;;;;;0.60;0.50;;;9.90;99.90;;;;;;4936622;29;20988;-81
2024/02/15 01:02:12;;;;;;;0.50;0.30;;;9.90;99.90;;;;;;4940592;29;20478;-81
2024/02/15 01:04:42;;;;;;;3.40;0.50;;;9.90;99.90;;;;;;4939843;29;20439;-81
2024/02/15 01:07:09;;;;;;;3.67;0.80;;;9.90;99.90;;;;;;4940001;29;20450;-81
2024/02/15 01:09:36;;;;;;;0.80;0.60;;;9.90;99.90;;;;;;4939977;29;20474;-81
2024/02/15 01:12:03;;;;;;;0.40;0.40;;;9.80;99.90;;;;;;4943776;29;20475;-82
2024/02/15 01:14:31;;;;;;;0.50;0.50;;;9.80;99.90;;;;;;4942988;29;20487;-81
2024/02/15 01:16:58;;;;;;;0.50;0.50;;;9.70;99.90;;;;;;4942085;29;20483;-81
2024/02/15 01:19:25;;;;;;;0.60;0.60;;;9.70;99.90;;;;;;4942952;29;20965;-81
2024/02/15 01:21:53;;;;;;;0.90;0.43;;;9.70;99.90;;;;;;4941975;29;20455;-81
2024/02/15 01:24:20;;;;;;;0.70;0.60;;;9.70;99.90;;;;;;4941955;29;20459;-81
2024/02/15 01:26:47;;;;;;;0.70;0.50;;;9.70;99.90;;;;;;4943879;29;20451;-81
2024/02/15 01:29:14;;;;;;;1.13;1.03;;;9.70;99.90;;;;;;4941696;29;20467;-81
2024/02/15 01:31:43;;;;;;;0.50;0.40;;;9.70;99.90;;;;;;4941040;29;20435;-81
2024/02/15 01:34:10;;;;;;;0.40;0.40;;;9.70;99.90;;;;;;4941390;29;20455;-81
2024/02/15 01:36:36;;;;;;;4.60;1.00;;;9.60;99.90;;;;;;4941092;29;20522;-81
2024/02/15 01:39:03;;;;;;;14.53;0.70;;;9.60;99.90;;;;;;4941219;29;20945;-81
2024/02/15 01:41:31;;;;;;;0.70;0.53;;;9.50;99.90;;;;;;4940600;29;20458;-81
2024/02/15 01:43:58;;;;;;;4.83;0.60;;;9.50;99.90;;;;;;4940471;29;20940;-81
2024/02/15 01:46:25;;;;;;;0.70;0.47;;;9.40;99.90;;;;;;4940516;29;20447;-81
2024/02/15 01:48:54;;;;;;;2.03;0.53;;;9.30;99.90;;;;;;4940574;29;20870;-81
2024/02/15 01:51:20;;;;;;;0.60;0.53;;;9.20;99.90;;;;;;4940331;29;20550;-81
2024/02/15 01:53:47;;;;;;;1.30;0.53;;;9.20;99.90;;;;;;4940154;29;20451;-81
2024/02/15 01:56:17;;;;;;;0.50;0.50;;;9.10;99.90;;;;;;4940008;29;20487;-81
2024/02/15 01:58:45;;;;;;;0.73;0.73;;;9.10;99.90;;;;;;4940121;29;20454;-81
2024/02/15 02:01:13;;;;;;;0.60;0.60;;;9.00;99.90;;;;;;4940063;29;20470;-81
2024/02/15 02:03:40;;;;;;;0.60;0.40;;;9.00;99.90;;;;;;4940111;29;20536;-81
2024/02/15 02:06:08;;;;;;;3.53;0.50;;;9.00;99.90;;;;;;4940086;29;20941;-81
2024/02/15 02:08:35;;;;;;;1.23;0.50;;;8.90;99.90;;;;;;4939741;29;20451;-81
2024/02/15 02:11:02;;;;;;;1.33;0.50;;;8.90;99.90;;;;;;4939042;29;20487;-81
2024/02/15 02:13:28;;;;;;;0.40;0.40;;;8.80;99.90;;;;;;4939154;29;20921;-81
2024/02/15 02:15:56;;;;;;;0.43;0.33;;;8.80;99.90;;;;;;4939636;29;20439;-81
2024/02/15 02:18:24;;;;;;;0.30;0.30;;;8.70;99.90;;;;;;4939155;29;21039;-81
2024/02/15 02:20:50;;;;;;;1.10;0.43;;;8.70;99.90;;;;;;4939232;29;20471;-81
2024/02/15 02:23:25;;;;;;;0.70;0.70;;;8.70;99.90;;;;;;4939593;29;20447;-82
2024/02/15 02:25:55;;;;;;;0.50;0.40;;;8.70;99.90;;;;;;4939378;29;20443;-80
2024/02/15 02:28:22;;;;;;;0.80;0.50;;;8.60;99.90;;;;;;4938850;29;20968;-79
2024/02/15 02:30:49;;;;;;;0.50;0.50;;;8.60;99.90;;;;;;4939091;29;20459;-80
2024/02/15 02:33:18;;;;;;;0.90;0.60;;;8.60;99.90;;;;;;4939007;29;20451;-80
2024/02/15 02:35:45;;;;;;;2.30;0.90;;;8.60;99.90;;;;;;4938895;29;21015;-81
2024/02/15 02:38:12;;;;;;;6.23;0.87;;;8.50;99.90;;;;;;4938273;29;20972;-82
2024/02/15 02:40:39;;;;;;;0.40;0.40;;;8.50;99.90;;;;;;4938510;29;20474;-82
2024/02/15 02:43:07;;;;;;;0.33;0.30;;;8.50;99.90;;;;;;4938045;29;20454;-82
2024/02/15 02:45:34;;;;;;;1.37;1.13;;;8.40;99.90;;;;;;4938120;29;20451;-82
2024/02/15 02:48:01;;;;;;;0.97;0.80;;;8.40;99.90;;;;;;4937361;29;20455;-82
2024/02/15 02:50:28;;;;;;;0.60;0.60;;;8.30;99.90;;;;;;4938698;29;21015;-82
2024/02/15 02:52:54;;;;;;;0.40;0.37;;;8.30;99.90;;;;;;4938921;29;20447;-82
2024/02/15 02:55:21;;;;;;;6.23;0.80;;;8.30;99.90;;;;;;4937755;29;20978;-82
2024/02/15 02:57:48;;;;;;;1.03;0.40;;;8.30;99.90;;;;;;4938572;29;20519;-81
2024/02/15 03:00:17;;;;;;;1.07;0.37;;;8.30;99.90;;;;;;4937706;29;20477;-81
2024/02/15 03:02:44;;;;;;;0.50;0.50;;;8.20;99.90;;;;;;4937871;29;20455;-81
2024/02/15 03:05:12;;;;;;;0.53;0.53;;;8.20;99.90;;;;;;4937559;29;20823;-80
2024/02/15 03:07:40;;;;;;;1.07;0.80;;;8.20;99.90;;;;;;4937391;29;20448;-80
2024/02/15 03:10:08;;;;;;;1.20;0.60;;;8.20;99.90;;;;;;4937318;29;20980;-80
2024/02/15 03:12:35;;;;;;;2.30;0.83;;;8.20;99.90;;;;;;4937945;29;20443;-80
2024/02/15 03:15:03;;;;;;;0.67;0.47;;;8.10;99.90;;;;;;4938301;29;20440;-80
2024/02/15 03:17:32;;;;;;;0.50;0.50;;;8.10;99.90;;;;;;4937581;29;21068;-80
2024/02/15 03:19:58;;;;;;;3.03;0.53;;;8.10;99.90;;;;;;4937685;29;20903;-80
2024/02/15 03:22:27;;;;;;;0.67;0.50;;;8.10;99.90;;;;;;4937818;29;20459;-80
2024/02/15 03:24:54;;;;;;;0.60;0.40;;;8.10;99.90;;;;;;4940730;29;20535;-79
2024/02/15 03:27:22;;;;;;;0.40;0.40;;;8.10;99.90;;;;;;4940997;29;20458;-80
2024/02/15 03:29:49;;;;;;;0.60;0.53;;;8.00;99.90;;;;;;4937174;29;20885;-80
2024/02/15 03:32:16;;;;;;;0.80;0.60;;;8.00;99.90;;;;;;4937104;29;20455;-80
2024/02/15 03:34:45;;;;;;;0.50;0.50;;;8.00;99.90;;;;;;4937148;29;20459;-80
2024/02/15 03:37:11;;;;;;;1.07;1.00;;;8.00;99.90;;;;;;4937226;29;20486;-80
2024/02/15 03:39:38;;;;;;;0.57;0.57;;;8.00;99.90;;;;;;4936764;29;20478;-80
2024/02/15 03:42:05;;;;;;;0.50;0.40;;;8.00;99.90;;;;;;4937289;29;20462;-80
2024/02/15 03:44:32;;;;;;;0.77;0.60;;;7.90;99.90;;;;;;4937106;29;20506;-80
2024/02/15 03:46:59;;;;;;;1.27;0.50;;;7.90;99.90;;;;;;4936870;29;20811;-81
2024/02/15 03:49:26;;;;;;;0.70;0.70;;;7.90;99.90;;;;;;4936941;29;20479;-81
2024/02/15 03:51:54;;;;;;;0.70;0.63;;;7.90;99.90;;;;;;4937007;29;20453;-80
2024/02/15 03:54:22;;;;;;;2.13;0.60;;;7.90;99.90;;;;;;4936796;29;20455;-81
2024/02/15 03:56:51;;;;;;;0.83;0.40;;;7.90;99.90;;;;;;4937932;29;20483;-81
2024/02/15 03:59:19;;;;;;;0.60;0.60;;;7.90;99.90;;;;;;4937193;29;20474;-81
2024/02/15 04:01:46;;;;;;;0.40;0.33;;;7.90;99.90;;;;;;4937140;29;20563;-81
2024/02/15 04:04:13;;;;;;;0.77;0.77;;;7.90;99.90;;;;;;4937084;29;20458;-81
2024/02/15 04:06:41;;;;;;;0.87;0.50;;;7.90;99.90;;;;;;4936584;29;20439;-80
2024/02/15 04:09:10;;;;;;;0.50;0.40;;;7.90;99.90;;;;;;4936629;29;20530;-80
2024/02/15 04:11:37;;;;;;;0.50;0.40;;;7.90;99.90;;;;;;4936685;29;20483;-80
2024/02/15 04:14:04;;;;;;;0.40;0.40;;;7.90;99.90;;;;;;4936982;29;20499;-80
2024/02/15 04:16:31;;;;;;;5.07;0.60;;;8.00;99.90;;;;;;4936654;29;20459;-80
2024/02/15 04:18:58;;;;;;;0.60;0.60;;;8.00;99.90;;;;;;4936370;29;20945;-81
2024/02/15 04:21:26;;;;;;;0.40;0.30;;;8.00;99.90;;;;;;4936366;29;20436;-80
2024/02/15 04:23:53;;;;;;;0.60;0.60;;;8.10;99.90;;;;;;4936808;29;20454;-80
2024/02/15 04:26:25;;;;;;;11.40;0.90;;;8.10;99.90;;;;;;4936745;29;20487;-80
2024/02/15 04:28:52;;;;;;;3.83;0.60;;;8.20;99.90;;;;;;4936658;29;20447;-80
2024/02/15 04:31:24;;;;;;;0.60;0.60;;;8.20;99.90;;;;;;4936408;29;20447;-81
2024/02/15 04:33:53;;;;;;;6.20;0.87;;;8.20;99.90;;;;;;4936546;29;20439;-81
2024/02/15 04:36:23;;;;;;;0.50;0.50;;;8.20;99.90;;;;;;4938919;29;20456;-81
2024/02/15 04:38:51;;;;;;;0.53;0.50;;;8.30;99.90;;;;;;4940311;29;20475;-80
2024/02/15 04:41:22;;;;;;;0.50;0.50;;;8.20;99.90;;;;;;4940140;29;20482;-81
2024/02/15 04:43:51;;;;;;;1.60;0.70;;;8.20;99.90;;;;;;4940170;29;20428;-81
2024/02/15 04:46:20;;;;;;;0.40;0.40;;;8.20;99.90;;;;;;4940212;29;20451;-81
2024/02/15 04:48:49;;;;;;;0.50;0.50;;;8.30;99.90;;;;;;4941526;29;20443;-80
2024/02/15 04:51:16;;;;;;;0.77;0.43;;;8.30;99.90;;;;;;4940451;29;20446;-81
2024/02/15 04:53:43;;;;;;;1.80;1.07;;;8.30;99.90;;;;;;4939741;29;20487;-81
2024/02/15 04:56:13;;;;;;;0.90;0.47;;;8.30;99.90;;;;;;4940015;29;20458;-81
2024/02/15 04:58:45;;;;;;;2.50;0.50;;;8.30;99.90;;;;;;4939800;29;20470;-81
2024/02/15 05:01:14;;;;;;;0.77;0.73;;;8.30;99.90;;;;;;4939795;29;20550;-81
2024/02/15 05:03:41;;;;;;;0.80;0.40;;;8.30;99.90;;;;;;4940024;29;20447;-81
2024/02/15 05:06:09;;;;;;;0.50;0.50;;;8.20;99.90;;;;;;4940056;29;20458;-81
2024/02/15 05:08:36;;;;;;;0.80;0.60;;;8.20;99.90;;;;;;4940088;29;20806;-81
2024/02/15 05:11:05;;;;;;;1.00;0.90;;;8.20;99.90;;;;;;4939401;29;20491;-81
2024/02/15 05:13:31;;;;;;;0.60;0.60;;;8.10;99.90;;;;;;4940160;29;20451;-81
2024/02/15 05:15:58;;;;;;;0.70;0.67;;;8.10;99.90;;;;;;4940668;29;20447;-81
2024/02/15 05:18:26;;;;;;;0.70;0.47;;;8.10;99.90;;;;;;4942624;29;20490;-81
2024/02/15 05:20:53;;;;;;;1.07;0.50;;;8.10;99.90;;;;;;4942003;29;20471;-81
2024/02/15 05:23:20;;;;;;;0.80;0.80;;;8.10;99.90;;;;;;4940904;29;20454;-82
2024/02/15 05:25:46;;;;;;;0.47;0.43;;;8.10;99.90;;;;;;4940793;29;20455;-81
2024/02/15 05:28:13;;;;;;;0.63;0.50;;;8.10;99.90;;;;;;4939809;29;20466;-81
2024/02/15 05:30:40;;;;;;;0.63;0.57;;;8.10;99.90;;;;;;4940295;29;20478;-81
2024/02/15 05:33:10;;;;;;;0.60;0.60;;;8.10;99.90;;;;;;4940762;29;20451;-81
2024/02/15 05:35:39;;;;;;;21.73;0.90;;;8.10;99.90;;;;;;4940488;29;20439;-81
2024/02/15 05:38:06;;;;;;;0.90;0.47;;;8.10;99.90;;;;;;4944777;29;20511;-81
2024/02/15 05:40:33;;;;;;;2.00;0.60;;;8.10;99.90;;;;;;4938816;29;20474;-81
2024/02/15 05:43:01;;;;;;;0.80;0.47;;;8.10;99.90;;;;;;4939802;29;20446;-81
2024/02/15 05:45:32;;;;;;;1.43;0.60;;;8.00;99.90;;;;;;4938995;29;20895;-81
2024/02/15 05:47:59;;;;;;;0.60;0.60;;;8.00;99.90;;;;;;4937655;29;20478;-81
2024/02/15 05:50:29;;;;;;;1.07;0.90;;;8.00;99.90;;;;;;4938278;29;20475;-81
2024/02/15 05:52:58;;;;;;;0.80;0.53;;;7.90;99.90;;;;;;4938603;29;20455;-81
2024/02/15 05:55:26;;;;;;;0.70;0.70;;;8.00;99.90;;;;;;4938600;29;20458;-82
2024/02/15 05:57:53;;;;;;;0.73;0.47;;;8.00;99.90;;;;;;4938447;29;21055;-81
2024/02/15 06:00:21;;;;;;;0.70;0.50;;;8.00;99.90;;;;;;4938502;29;20503;-81
2024/02/15 06:02:49;;;;;;;1.10;0.97;;;8.00;99.90;;;;;;4938657;29;20459;-81
2024/02/15 06:05:16;;;;;;;0.40;0.40;;;8.10;99.90;;;;;;4938651;29;20894;-81
2024/02/15 06:07:44;;;;;;;0.53;0.53;;;8.10;99.90;;;;;;4938270;29;20554;-82
2024/02/15 06:10:13;;;;;;;1.50;0.87;;;8.10;99.90;;;;;;4938122;29;20550;-81
2024/02/15 06:12:39;;;;;;;3.50;0.77;;;8.10;99.90;;;;;;4937954;29;21004;-81
2024/02/15 06:15:14;;;;;;;0.73;0.73;;;8.10;99.90;;;;;;4939028;29;20443;-81
2024/02/15 06:17:41;;;;;;;3.73;0.70;;;8.20;99.90;;;;;;4938427;29;20860;-81
2024/02/15 06:20:09;;;;;;;0.77;0.40;;;8.20;99.90;;;;;;4938420;29;20474;-81
2024/02/15 06:22:39;;;;;;;1.23;0.80;;;8.10;99.90;;;;;;4938584;29;21008;-81
2024/02/15 06:25:06;;;;;;;0.43;0.40;;;8.10;99.90;;;;;;4939514;29;20462;-81
2024/02/15 06:27:36;;;;;;;0.80;0.60;;;8.10;99.90;;;;;;4938561;29;20454;-81
2024/02/15 06:41:09;;;;;;;0.80;0.63;;;8.00;99.90;;;;;;4938830;29;20497;-81
2024/02/15 06:43:39;;;;;;;0.30;0.30;;;7.90;99.90;;;;;;4938709;29;20483;-81
2024/02/15 06:46:08;;;;;;;0.60;0.60;;;7.90;99.90;;;;;;4938754;29;20455;-81
2024/02/15 06:48:35;;;;;;;0.57;0.50;;;7.80;99.90;;;;;;4938066;29;20556;-81
2024/02/15 06:51:02;;;;;;;0.50;0.40;;;7.90;99.90;;;;;;4938177;29;20478;-81
2024/02/15 06:53:30;;;;;;;0.63;0.63;;;7.90;99.90;;;;;;4937260;29;20506;-81
2024/02/15 06:55:57;;;;;;;0.73;0.50;;;7.90;99.90;;;;;;4937179;29;20797;-81
2024/02/15 06:58:23;;;;;;;1.43;0.80;;;8.00;99.90;;;;;;4936766;29;20879;-81
2024/02/15 07:00:51;;;;;;;0.87;0.67;;;8.00;99.90;;;;;;4937205;29;20494;-81
2024/02/15 07:03:18;;;;;;;2.30;0.90;;;8.10;99.90;;;;;;4936903;29;20489;-81
2024/02/15 07:05:45;;;;;;;0.60;0.60;;;8.10;99.90;;;;;;4937261;29;20467;-81
2024/02/15 07:08:12;;;;;;;0.70;0.70;;;8.20;99.90;;;;;;4937283;29;20499;-81
2024/02/15 07:10:39;;;;;;;0.77;0.60;;;8.30;99.90;;;;;;4936764;29;20586;-81
2024/02/15 07:13:06;;;;;;;1.90;1.13;;;8.30;99.90;;;;;;4937154;29;20902;-81
2024/02/15 07:15:37;;;;;;;3.13;0.57;;;8.40;99.90;;;;;;4937067;29;20542;-81
2024/02/15 07:18:07;;;;;;;0.80;0.80;;;8.50;99.90;;;;;;4937035;29;20482;-80
2024/02/15 07:20:33;;;;;;;0.73;0.73;;;8.50;99.90;;;;;;4936978;29;20475;-80
2024/02/15 07:23:01;;;;;;;1.57;0.70;;;8.60;99.90;;;;;;4937156;29;20474;-80
2024/02/15 07:25:27;;;;;;;0.77;0.70;;;8.60;99.90;;;;;;4937207;29;20952;-80
2024/02/15 07:27:54;;;;;;;0.70;0.70;;;8.70;99.90;;;;;;4937638;29;20470;-80
2024/02/15 07:30:22;;;;;;;5.03;1.37;;;8.80;99.90;;;;;;4936870;29;20490;-80
2024/02/15 07:32:49;;;;;;;0.73;0.73;;;8.80;99.90;;;;;;4937054;29;20455;-80
2024/02/15 07:35:17;;;;;;;2.40;0.93;;;8.90;99.90;;;;;;4936825;29;20448;-81
2024/02/15 07:37:55;;;;;;;1.00;0.80;;;9.00;99.90;;;;;;4936590;29;20569;-81
2024/02/15 07:40:22;;;;;;;0.70;0.63;;;9.10;99.90;;;;;;4936542;29;20475;-81
2024/02/15 07:42:49;;;;;;;0.60;0.60;;;9.10;99.90;;;;;;4936749;29;20498;-81
2024/02/15 07:45:17;;;;;;;6.30;0.83;;;9.20;99.90;;;;;;4936657;29;20455;-81
2024/02/15 07:47:45;;;;;;;0.60;0.60;;;9.40;99.90;;;;;;4941300;29;20494;-80
2024/02/15 07:50:14;;;;;;;0.67;0.53;;;9.40;99.90;;;;;;4945861;29;20447;-79
2024/02/15 07:52:42;;;;;;;2.23;1.10;;;9.50;99.90;;;;;;4939360;29;20456;-80
2024/02/15 07:55:09;;;;;;;0.93;0.60;;;9.50;99.90;;;;;;4937096;29;20443;-80
2024/02/15 07:57:36;;;;;;;0.63;0.63;;;9.60;99.90;;;;;;4937355;29;20451;-81
2024/02/15 08:00:05;;;;;;;1.00;0.80;;;9.70;99.90;;;;;;4936233;29;20463;-81
2024/02/15 08:02:34;;;;;;;1.23;0.70;;;9.80;99.90;;;;;;4936312;29;20431;-80
2024/02/15 08:05:04;;;;;;;0.87;0.60;;;9.90;99.90;;;;;;4936502;29;20451;-80
2024/02/15 08:07:34;;;;;;;1.53;0.60;;;9.90;99.90;;;;;;4936473;29;20471;-80
2024/02/15 08:10:03;;;;;;;1.43;0.60;;;10.00;99.90;;;;;;4936500;29;20467;-80
2024/02/15 08:12:30;;;;;;;1.30;0.60;;;10.10;99.90;;;;;;4940175;29;20432;-81
2024/02/15 08:14:58;;;;;;;0.70;0.60;;;10.20;99.90;;;;;;4940355;29;20542;-80
2024/02/15 08:17:25;;;;;;;0.70;0.60;;;10.30;99.90;;;;;;4940280;29;20458;-80
2024/02/15 08:19:52;;;;;;;0.93;0.70;;;10.50;99.90;;;;;;4940114;29;20486;-80
2024/02/15 08:22:23;;;;;;;0.83;0.80;;;10.60;99.90;;;;;;4940118;29;20457;-80
2024/02/15 08:24:50;;;;;;;1.03;0.60;;;10.70;99.90;;;;;;4940170;29;20492;-80
2024/02/15 08:27:18;;;;;;;1.80;0.50;;;10.80;99.90;;;;;;4939757;29;20447;-80
2024/02/15 08:29:45;;;;;;;1.37;1.27;;;10.90;99.90;;;;;;4953019;29;20459;-80
2024/02/15 08:32:11;;;;;;;0.97;0.70;;;10.90;99.90;;;;;;4945598;29;20443;-80
2024/02/15 08:34:39;;;;;;;0.87;0.80;;;11.00;99.90;;;;;;4944482;29;20443;-80
2024/02/15 08:37:07;;;;;;;0.83;0.53;;;11.10;99.90;;;;;;4944710;29;20488;-80
2024/02/15 08:39:33;;;;;;;5.47;0.77;;;11.20;99.90;;;;;;4943347;29;21059;-80
2024/02/15 08:42:00;;;;;;;1.33;1.00;;;11.20;99.90;;;;;;4943130;29;20451;-81
2024/02/15 08:44:28;;;;;;;1.43;0.80;;;11.30;99.90;;;;;;4942753;29;20948;-80
2024/02/15 08:46:55;;;;;;;2.10;0.63;;;11.30;99.90;;;;;;4941632;29;20447;-80
2024/02/15 08:49:22;;;;;;;0.80;0.60;;;11.40;99.90;;;;;;4941335;29;20463;-80
2024/02/15 08:51:49;;;;;;;1.13;1.13;;;11.40;99.90;;;;;;4941204;29;20451;-80
2024/02/15 08:54:16;;;;;;;1.13;1.10;;;11.50;99.90;;;;;;4940427;29;20506;-80
2024/02/15 08:56:43;;;;;;;0.77;0.77;;;11.50;99.90;;;;;;4940869;29;20451;-80
2024/02/15 08:59:10;;;;;;;1.63;0.93;;;11.60;99.90;;;;;;4940203;29;20565;-81
2024/02/15 09:01:39;;;;;;;1.77;1.10;;;11.60;99.90;;;;;;4939893;29;20526;-80
2024/02/15 09:04:06;;;;;;;1.70;0.93;;;11.80;99.90;;;;;;4939703;29;20447;-80
2024/02/15 09:06:32;;;;;;;0.80;0.80;;;11.90;99.90;;;;;;4939655;29;20462;-80
2024/02/15 09:08:59;;;;;;;1.43;0.90;;;12.10;99.90;;;;;;4939572;29;20442;-80
2024/02/15 09:11:29;;;;;;;1.07;0.97;;;12.50;99.90;;;;;;4940524;29;20474;-80
2024/02/15 09:13:56;;;;;;;1.27;0.97;;;13.10;99.90;;;;;;4940636;29;20427;-80
2024/02/15 09:16:23;;;;;;;1.00;1.00;;;13.70;99.90;;;;;;4940127;29;20440;-80
2024/02/15 09:18:51;;;;;;;1.40;1.00;;;14.60;99.90;;;;;;4940584;29;20988;-80
2024/02/15 09:21:17;;;;;;;0.80;0.80;;;15.40;99.90;;;;;;4939694;29;20450;-80
2024/02/15 09:23:44;;;;;;;1.47;0.90;;;16.40;99.90;;;;;;4939476;29;20455;-80
2024/02/15 09:26:11;;;;;;;0.70;0.70;;;17.40;99.90;;;;;;4939687;29;20455;-81
2024/02/15 09:28:38;;;;;;;0.70;0.67;;;18.00;99.90;;;;;;4939308;29;20451;-80
2024/02/15 09:31:04;;;;;;;1.97;1.13;;;18.50;99.90;;;;;;4939304;29;20510;-80
2024/02/15 09:33:31;;;;;;;2.63;1.07;;;18.80;99.90;;;;;;4940916;29;20454;-81
2024/02/15 09:35:59;;;;;;;0.63;0.63;;;19.00;99.90;;;;;;4939614;29;20446;-80
2024/02/15 09:38:26;;;;;;;1.13;0.77;;;19.70;99.90;;;;;;4938993;29;20532;-80
2024/02/15 09:40:54;;;;;;;1.73;1.10;;;20.40;99.90;;;;;;4940205;29;21011;-80
2024/02/15 09:43:21;;;;;;;1.17;0.80;;;21.30;99.90;;;;;;4938939;29;20495;-80
2024/02/15 09:45:48;;;;;;;0.90;0.90;;;22.20;99.90;;;;;;4939036;29;20450;-80
2024/02/15 09:48:17;;;;;;;0.80;0.60;;;22.50;99.90;;;;;;4938695;29;20438;-80
2024/02/15 09:50:46;;;;;;;1.70;0.60;;;22.80;99.90;;;;;;4939149;29;20482;-80
2024/02/15 09:53:15;;;;;;;0.80;0.53;;;23.30;99.90;;;;;;4940822;29;20462;-81
2024/02/15 09:55:44;;;;;;;3.60;0.80;;;23.80;99.90;;;;;;4941077;29;20239;-81
2024/02/15 09:58:12;;;;;;;0.65;0.65;;;23.70;98.40;;;;;;4941034;29;20211;-81
2024/02/15 10:00:39;;;;;;;0.60;0.60;;;23.70;97.70;;;;;;4941372;29;20286;-81
2024/02/15 10:03:07;;;;;;;0.77;0.50;;;24.00;96.10;;;;;;4949866;29;20211;-85
2024/02/15 10:05:34;;;;;;;0.60;0.60;;;24.10;95.10;;;;;;4938449;29;20238;-80
2024/02/15 10:08:01;;;;;;;0.93;0.57;;;23.80;95.10;;;;;;4937801;29;20711;-80
2024/02/15 10:10:29;;;;;;;0.50;0.50;;;23.40;93.80;;;;;;4937924;29;20324;-81
2024/02/15 10:12:56;;;;;;;0.50;0.50;;;22.90;95.00;;;;;;4938288;29;20217;-80
2024/02/15 10:15:35;;;;;;;1.02;0.50;;;22.40;96.00;;;;;;4937736;29;20672;-80
2024/02/15 10:18:03;;;;;;;0.50;0.50;;;22.40;96.10;;;;;;4937746;29;20556;-80
2024/02/15 10:20:31;;;;;;;0.50;0.50;;;22.20;94.60;;;;;;4937918;29;20231;-80
2024/02/15 10:23:10;;;;;;;0.90;0.60;;;22.10;95.10;;;;;;4937918;29;20971;-80
2024/02/15 10:25:40;;;;;;;1.30;0.87;;;22.30;94.50;;;;;;4937922;29;20431;-80
2024/02/15 10:28:08;;;;;;;1.30;0.77;;;23.00;94.70;;;;;;4937717;29;20455;-80
2024/02/15 10:30:35;;;;;;;2.70;0.80;;;23.90;94.10;;;;;;4937728;29;20463;-80
2024/02/15 10:33:02;;;;;;;2.97;0.77;;;24.60;93.40;;;;;;4936778;29;20435;-80
2024/02/15 10:35:29;;;;;;;0.73;0.50;;;24.70;92.00;;;;;;4937364;29;20198;-80
2024/02/15 10:38:08;;;;;;;0.50;0.50;;;24.80;91.10;;;;;;4937588;29;20214;-80
2024/02/15 10:40:35;;;;;;;0.60;0.60;;;24.10;90.50;;;;;;4939199;29;20309;-81
2024/02/15 10:43:04;;;;;;;1.00;0.40;;;23.50;91.50;;;;;;4940030;29;20233;-81
2024/02/15 10:45:32;;;;;;;0.50;0.50;;;23.30;91.50;;;;;;4940255;29;20242;-81
2024/02/15 10:47:58;;;;;;;0.50;0.50;;;22.80;91.10;;;;;;4939539;29;20207;-81
2024/02/15 10:50:25;;;;;;;0.40;0.40;;;21.90;92.00;;;;;;4938907;29;20227;-81
2024/02/15 10:52:56;;;;;;;2.20;0.50;;;21.60;92.90;;;;;;4939352;29;20211;-81
2024/02/15 10:55:39;;;;;;;0.40;0.30;;;21.40;92.20;;;;;;4939365;29;20183;-81
2024/02/15 10:58:08;;;;;;;0.50;0.40;;;21.40;92.90;;;;;;4939577;29;20621;-81
2024/02/15 11:00:37;;;;;;;0.40;0.40;;;21.10;93.20;;;;;;4939284;29;20234;-81
2024/02/15 11:03:06;;;;;;;1.30;0.47;;;20.80;93.50;;;;;;4938916;29;20814;-81
2024/02/15 11:05:35;;;;;;;0.60;0.50;;;20.10;93.90;;;;;;4938983;29;20455;-81
2024/02/15 11:08:06;;;;;;;1.13;0.53;;;19.50;94.50;;;;;;4939868;29;20446;-81
2024/02/15 11:10:34;;;;;;;2.33;0.40;;;18.90;96.30;;;;;;4939521;29;20482;-81
2024/02/15 11:13:02;;;;;;;1.17;0.40;;;18.60;96.60;;;;;;4939574;29;20455;-81
2024/02/15 11:15:45;;;;;;;0.60;0.50;;;18.30;96.80;;;;;;4939057;29;20506;-80
2024/02/15 11:18:12;;;;;;;0.50;0.47;;;18.00;97.70;;;;;;4939073;29;20812;-80
2024/02/15 11:20:52;;;;;;;0.50;0.50;;;17.80;99.20;;;;;;4938682;29;20494;-80
2024/02/15 11:23:30;;;;;;;0.67;0.67;;;17.60;98.50;;;;;;4939342;29;20444;-81
2024/02/15 11:25:59;;;;;;;0.93;0.50;;;17.40;98.90;;;;;;4938973;29;20439;-80
2024/02/15 11:28:50;;;;;;;0.80;0.50;;;17.10;99.90;;;;;;4939476;29;20451;-80
2024/02/15 11:31:50;;;;;;;0.60;0.50;;;17.00;99.90;;;;;;4939044;29;20447;-80
2024/02/15 11:34:49;;;;;;;0.50;0.40;;;16.90;99.90;;;;;;4939125;29;20441;-81
2024/02/15 11:37:51;;;;;;;0.90;0.40;;;16.80;99.90;;;;;;4938862;29;20897;-81
2024/02/15 11:40:18;;;;;;;0.40;0.30;;;16.80;99.90;;;;;;4939282;29;20505;-81
2024/02/15 11:42:45;;;;;;;0.63;0.43;;;16.70;99.90;;;;;;4938864;29;20976;-81
2024/02/15 11:45:13;;;;;;;0.40;0.40;;;16.70;99.90;;;;;;4938950;28;20474;-81
2024/02/15 11:47:42;;;;;;;5.07;0.60;;;16.70;99.90;;;;;;4939008;29;20948;-81
2024/02/15 11:50:12;;;;;;;0.70;0.40;;;16.60;99.90;;;;;;4938981;29;20467;-81
2024/02/15 11:52:42;;;;;;;0.63;0.40;;;16.60;99.90;;;;;;4939651;29;20541;-81
2024/02/15 11:55:10;;;;;;;5.13;0.50;;;16.50;99.50;;;;;;4939041;29;20546;-81
2024/02/15 11:57:47;;;;;;;0.50;0.30;;;16.50;99.80;;;;;;4940036;29;20510;-81
2024/02/15 12:19:50;;;;;;;0.50;0.50;;;16.10;99.90;;;;;;4936247;29;20534;-81
2024/02/15 12:22:20;;;;;;;0.40;0.30;;;16.10;99.90;;;;;;4936685;29;20444;-83
2024/02/15 12:24:54;;;;;;;0.60;0.40;;;16.10;99.90;;;;;;4936046;29;20428;-83
2024/02/15 12:27:21;;;;;;;0.70;0.50;;;16.10;99.90;;;;;;4936397;29;20436;-84
2024/02/15 12:29:57;;;;;;;0.70;0.50;;;16.20;99.90;;;;;;4936327;29;20467;-83
2024/02/15 12:32:25;;;;;;;0.40;0.40;;;16.20;99.90;;;;;;4936273;29;20560;-84
2024/02/15 12:34:52;;;;;;;0.73;0.70;;;16.20;99.90;;;;;;4936168;29;20455;-84
2024/02/15 12:37:21;;;;;;;2.40;0.40;;;16.30;99.90;;;;;;4936570;29;20454;-84
2024/02/15 12:39:49;;;;;;;0.60;0.40;;;16.40;99.90;;;;;;4935649;29;20490;-84
2024/02/15 12:42:16;;;;;;;0.60;0.47;;;16.40;99.90;;;;;;4936157;29;20443;-84
2024/02/15 12:44:46;;;;;;;0.70;0.40;;;16.50;99.90;;;;;;4935979;29;20546;-84
2024/02/15 12:47:19;;;;;;;0.60;0.50;;;16.50;99.90;;;;;;4935634;29;20458;-84
2024/02/15 12:49:46;;;;;;;0.70;0.40;;;16.60;99.90;;;;;;4935973;29;20463;-84
2024/02/15 12:52:38;;;;;;;0.80;0.47;;;16.50;99.90;;;;;;4935807;29;20503;-84
2024/02/15 12:55:12;;;;;;;0.80;0.43;;;16.40;99.90;;;;;;4935922;29;20451;-84
2024/02/15 12:57:41;;;;;;;0.43;0.43;;;16.50;99.90;;;;;;4938503;29;20439;-84
2024/02/15 13:00:17;;;;;;;1.77;0.50;;;16.50;99.90;;;;;;4939192;29;20499;-84
2024/02/15 13:02:44;;;;;;;1.03;0.40;;;16.60;99.90;;;;;;4939078;29;20906;-84
2024/02/15 13:05:11;;;;;;;0.50;0.50;;;16.70;99.90;;;;;;4939544;29;20791;-84
2024/02/15 13:07:40;;;;;;;0.43;0.43;;;16.70;99.90;;;;;;4939982;29;20494;-84
2024/02/15 13:10:07;;;;;;;1.10;0.60;;;16.80;99.90;;;;;;4939006;29;20880;-84
2024/02/15 13:12:35;;;;;;;1.60;0.90;;;16.80;99.90;;;;;;4939223;29;20451;-84
2024/02/15 13:15:04;;;;;;;0.47;0.40;;;16.90;99.90;;;;;;4939378;29;20453;-84
2024/02/15 13:17:31;;;;;;;0.70;0.50;;;16.60;99.90;;;;;;4939582;29;20493;-84
2024/02/15 13:20:04;;;;;;;0.50;0.50;;;16.60;99.90;;;;;;4938977;29;20514;-84
2024/02/15 13:22:31;;;;;;;0.63;0.50;;;16.70;99.90;;;;;;4938928;29;20976;-84
2024/02/15 13:25:00;;;;;;;0.50;0.50;;;16.80;99.90;;;;;;4939900;29;20435;-84
2024/02/15 13:27:27;;;;;;;0.57;0.57;;;16.90;99.90;;;;;;4939462;29;20546;-84
2024/02/15 13:29:54;;;;;;;0.40;0.40;;;16.90;99.90;;;;;;4939566;29;20851;-84